sensor_id;sensor_type;location;lat;lon;timestamp;temperature;humidity
36322;DHT22;23564;48.290;11.460;2023-04-29T00:00:36;9.80;74.50
36322;DHT22;23564;48.290;11.460;2023-04-29T00:03:01;9.80;73.80
36322;DHT22;23564;48.290;11.460;2023-04-29T00:05:27;9.80;74.30
36322;DHT22;23564;48.290;11.460;2023-04-29T00:07:53;9.80;73.60
36322;DHT22;23564;48.290;11.460;2023-04-29T00:10:18;9.80;73.60
36322;DHT22;23564;48.290;11.460;2023-04-29T00:12:44;9.70;72.10
36322;DHT22;23564;48.290;11.460;2023-04-29T00:15:10;9.70;70.30
36322;DHT22;23564;48.290;11.460;2023-04-29T00:17:35;9.60;70.70
36322;DHT22;23564;48.290;11.460;2023-04-29T00:20:02;9.60;70.00
36322;DHT22;23564;48.290;11.460;2023-04-29T00:22:27;9.60;70.00
36322;DHT22;23564;48.290;11.460;2023-04-29T00:24:53;9.50;71.00
36322;DHT22;23564;48.290;11.460;2023-04-29T00:27:19;9.50;72.10
36322;DHT22;23564;48.290;11.460;2023-04-29T00:29:44;9.50;71.90
36322;DHT22;23564;48.290;11.460;2023-04-29T00:32:10;9.40;71.10
36322;DHT22;23564;48.290;11.460;2023-04-29T00:34:36;9.50;72.30
36322;DHT22;23564;48.290;11.460;2023-04-29T00:37:01;9.40;73.00
36322;DHT22;23564;48.290;11.460;2023-04-29T00:39:27;9.40;72.00
36322;DHT22;23564;48.290;11.460;2023-04-29T00:41:52;9.40;75.00
36322;DHT22;23564;48.290;11.460;2023-04-29T00:44:18;9.40;74.90
36322;DHT22;23564;48.290;11.460;2023-04-29T00:46:44;9.40;73.70
36322;DHT22;23564;48.290;11.460;2023-04-29T00:49:10;9.40;73.20
36322;DHT22;23564;48.290;11.460;2023-04-29T00:51:37;9.40;73.00
36322;DHT22;23564;48.290;11.460;2023-04-29T00:54:05;9.40;73.60
36322;DHT22;23564;48.290;11.460;2023-04-29T00:56:34;9.40;73.20
36322;DHT22;23564;48.290;11.460;2023-04-29T00:59:01;9.30;73.40
36322;DHT22;23564;48.290;11.460;2023-04-29T01:01:28;9.40;73.10
36322;DHT22;23564;48.290;11.460;2023-04-29T01:03:54;9.30;72.50
36322;DHT22;23564;48.290;11.460;2023-04-29T01:09:34;9.40;73.50
36322;DHT22;23564;48.290;11.460;2023-04-29T01:15:23;9.40;75.50
36322;DHT22;23564;48.290;11.460;2023-04-29T01:18:09;9.40;73.10
36322;DHT22;23564;48.290;11.460;2023-04-29T01:20:37;9.40;74.30
36322;DHT22;23564;48.290;11.460;2023-04-29T01:23:03;9.40;74.30
36322;DHT22;23564;48.290;11.460;2023-04-29T01:25:29;9.30;73.80
36322;DHT22;23564;48.290;11.460;2023-04-29T01:36:11;9.30;76.30
36322;DHT22;23564;48.290;11.460;2023-04-29T01:38:46;9.30;76.70
36322;DHT22;23564;48.290;11.460;2023-04-29T01:41:15;9.40;77.00
36322;DHT22;23564;48.290;11.460;2023-04-29T01:43:42;9.30;75.70
36322;DHT22;23564;48.290;11.460;2023-04-29T01:46:09;9.30;75.80
36322;DHT22;23564;48.290;11.460;2023-04-29T01:48:36;9.30;76.00
36322;DHT22;23564;48.290;11.460;2023-04-29T01:51:01;9.40;75.10
36322;DHT22;23564;48.290;11.460;2023-04-29T01:53:27;9.30;74.00
36322;DHT22;23564;48.290;11.460;2023-04-29T01:55:52;9.30;73.80
36322;DHT22;23564;48.290;11.460;2023-04-29T01:58:18;9.30;75.30
36322;DHT22;23564;48.290;11.460;2023-04-29T02:00:44;9.30;75.30
36322;DHT22;23564;48.290;11.460;2023-04-29T02:03:09;9.30;75.10
36322;DHT22;23564;48.290;11.460;2023-04-29T02:05:35;9.30;74.60
36322;DHT22;23564;48.290;11.460;2023-04-29T02:08:01;9.30;75.80
36322;DHT22;23564;48.290;11.460;2023-04-29T02:10:27;9.30;76.20
36322;DHT22;23564;48.290;11.460;2023-04-29T02:12:53;9.30;76.50
36322;DHT22;23564;48.290;11.460;2023-04-29T02:15:19;9.40;76.80
36322;DHT22;23564;48.290;11.460;2023-04-29T02:17:44;9.30;76.40
36322;DHT22;23564;48.290;11.460;2023-04-29T02:20:11;9.40;76.90
36322;DHT22;23564;48.290;11.460;2023-04-29T02:22:37;9.30;76.50
36322;DHT22;23564;48.290;11.460;2023-04-29T02:25:03;9.40;77.30
36322;DHT22;23564;48.290;11.460;2023-04-29T02:27:29;9.40;77.70
36322;DHT22;23564;48.290;11.460;2023-04-29T02:29:54;9.40;78.00
36322;DHT22;23564;48.290;11.460;2023-04-29T02:32:20;9.50;78.10
36322;DHT22;23564;48.290;11.460;2023-04-29T02:34:46;9.50;78.10
36322;DHT22;23564;48.290;11.460;2023-04-29T02:37:11;9.60;77.80
36322;DHT22;23564;48.290;11.460;2023-04-29T02:39:37;9.70;77.70
36322;DHT22;23564;48.290;11.460;2023-04-29T02:42:03;9.70;77.80
36322;DHT22;23564;48.290;11.460;2023-04-29T02:44:28;9.70;77.80
36322;DHT22;23564;48.290;11.460;2023-04-29T02:46:55;9.70;78.00
36322;DHT22;23564;48.290;11.460;2023-04-29T02:49:22;9.70;78.00
36322;DHT22;23564;48.290;11.460;2023-04-29T02:51:48;9.80;78.30
36322;DHT22;23564;48.290;11.460;2023-04-29T02:54:15;9.80;78.50
36322;DHT22;23564;48.290;11.460;2023-04-29T02:56:41;9.80;78.50
36322;DHT22;23564;48.290;11.460;2023-04-29T02:59:07;9.90;78.30
36322;DHT22;23564;48.290;11.460;2023-04-29T03:01:32;10.00;78.70
36322;DHT22;23564;48.290;11.460;2023-04-29T03:03:58;10.00;78.80
36322;DHT22;23564;48.290;11.460;2023-04-29T03:06:24;10.10;78.80
36322;DHT22;23564;48.290;11.460;2023-04-29T03:08:50;10.10;78.90
36322;DHT22;23564;48.290;11.460;2023-04-29T03:11:16;10.00;79.20
36322;DHT22;23564;48.290;11.460;2023-04-29T03:13:42;10.10;79.60
36322;DHT22;23564;48.290;11.460;2023-04-29T03:16:08;10.00;79.70
36322;DHT22;23564;48.290;11.460;2023-04-29T03:18:34;10.10;79.90
36322;DHT22;23564;48.290;11.460;2023-04-29T03:20:59;10.10;79.80
36322;DHT22;23564;48.290;11.460;2023-04-29T03:23:25;10.00;80.00
36322;DHT22;23564;48.290;11.460;2023-04-29T03:25:51;10.10;80.10
36322;DHT22;23564;48.290;11.460;2023-04-29T03:28:17;10.10;80.20
36322;DHT22;23564;48.290;11.460;2023-04-29T03:30:42;10.10;80.30
36322;DHT22;23564;48.290;11.460;2023-04-29T03:33:08;10.10;80.40
36322;DHT22;23564;48.290;11.460;2023-04-29T03:35:34;10.10;80.30
36322;DHT22;23564;48.290;11.460;2023-04-29T03:37:59;10.10;80.90
36322;DHT22;23564;48.290;11.460;2023-04-29T03:40:25;10.00;80.70
36322;DHT22;23564;48.290;11.460;2023-04-29T03:42:50;10.00;80.80
36322;DHT22;23564;48.290;11.460;2023-04-29T03:45:16;10.00;81.00
36322;DHT22;23564;48.290;11.460;2023-04-29T03:47:42;10.00;81.10
36322;DHT22;23564;48.290;11.460;2023-04-29T03:50:07;10.00;81.40
36322;DHT22;23564;48.290;11.460;2023-04-29T03:52:33;10.00;81.40
36322;DHT22;23564;48.290;11.460;2023-04-29T03:55:02;9.90;81.60
36322;DHT22;23564;48.290;11.460;2023-04-29T03:57:28;9.90;81.60
36322;DHT22;23564;48.290;11.460;2023-04-29T03:59:53;9.80;81.50
36322;DHT22;23564;48.290;11.460;2023-04-29T04:02:19;9.80;81.50
36322;DHT22;23564;48.290;11.460;2023-04-29T04:04:44;9.80;81.40
36322;DHT22;23564;48.290;11.460;2023-04-29T04:07:10;9.80;81.40
36322;DHT22;23564;48.290;11.460;2023-04-29T04:09:36;9.70;81.30
36322;DHT22;23564;48.290;11.460;2023-04-29T04:12:02;9.70;81.30
36322;DHT22;23564;48.290;11.460;2023-04-29T04:14:28;9.70;81.20
36322;DHT22;23564;48.290;11.460;2023-04-29T04:16:54;9.70;81.30
36322;DHT22;23564;48.290;11.460;2023-04-29T04:19:20;9.80;81.30
36322;DHT22;23564;48.290;11.460;2023-04-29T04:21:46;9.80;81.40
36322;DHT22;23564;48.290;11.460;2023-04-29T04:24:11;9.90;81.40
36322;DHT22;23564;48.290;11.460;2023-04-29T04:26:37;9.90;81.10
36322;DHT22;23564;48.290;11.460;2023-04-29T04:29:03;10.00;80.90
36322;DHT22;23564;48.290;11.460;2023-04-29T04:31:29;10.10;80.70
36322;DHT22;23564;48.290;11.460;2023-04-29T04:33:55;10.10;80.90
36322;DHT22;23564;48.290;11.460;2023-04-29T04:36:22;10.10;81.00
36322;DHT22;23564;48.290;11.460;2023-04-29T04:38:48;10.20;81.10
36322;DHT22;23564;48.290;11.460;2023-04-29T04:41:13;10.20;81.20
36322;DHT22;23564;48.290;11.460;2023-04-29T04:43:39;10.30;81.10
36322;DHT22;23564;48.290;11.460;2023-04-29T04:46:10;10.30;81.20
36322;DHT22;23564;48.290;11.460;2023-04-29T04:48:36;10.30;81.30
36322;DHT22;23564;48.290;11.460;2023-04-29T04:51:11;10.40;81.80
36322;DHT22;23564;48.290;11.460;2023-04-29T04:53:37;10.40;81.40
36322;DHT22;23564;48.290;11.460;2023-04-29T04:56:04;10.50;81.60
36322;DHT22;23564;48.290;11.460;2023-04-29T04:58:30;10.50;81.70
36322;DHT22;23564;48.290;11.460;2023-04-29T05:00:57;10.50;81.50
36322;DHT22;23564;48.290;11.460;2023-04-29T05:03:23;10.60;81.30
36322;DHT22;23564;48.290;11.460;2023-04-29T05:05:55;10.60;81.20
36322;DHT22;23564;48.290;11.460;2023-04-29T05:08:21;10.70;81.10
36322;DHT22;23564;48.290;11.460;2023-04-29T05:10:47;10.80;81.10
36322;DHT22;23564;48.290;11.460;2023-04-29T05:13:13;10.90;81.40
36322;DHT22;23564;48.290;11.460;2023-04-29T05:15:38;10.90;81.50
36322;DHT22;23564;48.290;11.460;2023-04-29T05:18:04;10.90;81.60
36322;DHT22;23564;48.290;11.460;2023-04-29T05:20:30;11.00;81.90
36322;DHT22;23564;48.290;11.460;2023-04-29T05:22:55;11.00;82.50
36322;DHT22;23564;48.290;11.460;2023-04-29T05:25:21;11.00;82.70
36322;DHT22;23564;48.290;11.460;2023-04-29T05:27:46;11.00;82.70
36322;DHT22;23564;48.290;11.460;2023-04-29T05:30:12;11.00;82.70
36322;DHT22;23564;48.290;11.460;2023-04-29T05:32:37;11.10;82.50
36322;DHT22;23564;48.290;11.460;2023-04-29T05:35:03;11.10;82.40
36322;DHT22;23564;48.290;11.460;2023-04-29T05:37:29;11.20;82.60
36322;DHT22;23564;48.290;11.460;2023-04-29T05:39:56;11.30;83.50
36322;DHT22;23564;48.290;11.460;2023-04-29T05:42:22;11.40;83.70
36322;DHT22;23564;48.290;11.460;2023-04-29T05:44:48;11.50;84.10
36322;DHT22;23564;48.290;11.460;2023-04-29T05:47:14;11.50;84.20
36322;DHT22;23564;48.290;11.460;2023-04-29T05:49:39;11.60;84.40
36322;DHT22;23564;48.290;11.460;2023-04-29T05:52:05;11.70;84.70
36322;DHT22;23564;48.290;11.460;2023-04-29T05:54:32;11.70;85.20
36322;DHT22;23564;48.290;11.460;2023-04-29T05:56:58;11.70;86.20
36322;DHT22;23564;48.290;11.460;2023-04-29T05:59:29;11.80;85.80
36322;DHT22;23564;48.290;11.460;2023-04-29T06:01:56;11.90;86.80
36322;DHT22;23564;48.290;11.460;2023-04-29T06:04:22;11.90;87.10
36322;DHT22;23564;48.290;11.460;2023-04-29T06:06:52;12.00;87.30
36322;DHT22;23564;48.290;11.460;2023-04-29T06:09:19;12.00;87.50
36322;DHT22;23564;48.290;11.460;2023-04-29T06:11:45;12.00;87.60
36322;DHT22;23564;48.290;11.460;2023-04-29T06:14:11;12.10;87.80
36322;DHT22;23564;48.290;11.460;2023-04-29T06:16:38;12.10;88.00
36322;DHT22;23564;48.290;11.460;2023-04-29T06:19:03;12.20;88.00
36322;DHT22;23564;48.290;11.460;2023-04-29T06:21:29;12.30;88.10
36322;DHT22;23564;48.290;11.460;2023-04-29T06:23:56;12.40;88.30
36322;DHT22;23564;48.290;11.460;2023-04-29T06:26:22;12.40;88.50
36322;DHT22;23564;48.290;11.460;2023-04-29T06:28:47;12.50;88.60
36322;DHT22;23564;48.290;11.460;2023-04-29T06:31:13;12.50;88.60
36322;DHT22;23564;48.290;11.460;2023-04-29T06:33:38;12.60;87.20
36322;DHT22;23564;48.290;11.460;2023-04-29T06:36:04;12.60;87.30
36322;DHT22;23564;48.290;11.460;2023-04-29T06:38:30;12.60;86.00
36322;DHT22;23564;48.290;11.460;2023-04-29T06:40:56;12.70;87.10
36322;DHT22;23564;48.290;11.460;2023-04-29T06:43:29;12.90;87.40
36322;DHT22;23564;48.290;11.460;2023-04-29T06:45:55;12.90;84.50
36322;DHT22;23564;48.290;11.460;2023-04-29T06:48:21;13.10;78.50
36322;DHT22;23564;48.290;11.460;2023-04-29T06:53:15;13.40;71.60
36322;DHT22;23564;48.290;11.460;2023-04-29T06:55:41;13.50;62.80
36322;DHT22;23564;48.290;11.460;2023-04-29T06:58:06;13.60;56.50
36322;DHT22;23564;48.290;11.460;2023-04-29T07:00:32;13.70;50.80
36322;DHT22;23564;48.290;11.460;2023-04-29T07:02:57;13.80;42.40
36322;DHT22;23564;48.290;11.460;2023-04-29T07:05:23;13.80;39.20
36322;DHT22;23564;48.290;11.460;2023-04-29T07:07:49;13.90;33.10
36322;DHT22;23564;48.290;11.460;2023-04-29T07:10:15;13.90;27.90
36322;DHT22;23564;48.290;11.460;2023-04-29T07:12:40;13.80;22.30
36322;DHT22;23564;48.290;11.460;2023-04-29T07:15:06;13.70;26.50
36322;DHT22;23564;48.290;11.460;2023-04-29T07:17:32;13.70;28.00
36322;DHT22;23564;48.290;11.460;2023-04-29T07:19:57;13.70;34.10
36322;DHT22;23564;48.290;11.460;2023-04-29T07:22:23;13.70;33.90
36322;DHT22;23564;48.290;11.460;2023-04-29T07:24:52;13.80;40.70
36322;DHT22;23564;48.290;11.460;2023-04-29T07:27:18;14.00;31.90
36322;DHT22;23564;48.290;11.460;2023-04-29T07:29:44;14.00;12.40
36322;DHT22;23564;48.290;11.460;2023-04-29T07:32:10;14.00;2.10
36322;DHT22;23564;48.290;11.460;2023-04-29T07:34:35;13.90;13.60
36322;DHT22;23564;48.290;11.460;2023-04-29T07:37:01;14.00;12.80
36322;DHT22;23564;48.290;11.460;2023-04-29T07:39:26;14.00;10.30
36322;DHT22;23564;48.290;11.460;2023-04-29T07:41:53;14.10;19.90
36322;DHT22;23564;48.290;11.460;2023-04-29T07:44:19;14.20;12.90
36322;DHT22;23564;48.290;11.460;2023-04-29T07:46:44;14.40;10.60
36322;DHT22;23564;48.290;11.460;2023-04-29T07:49:11;14.60;1.00
36322;DHT22;23564;48.290;11.460;2023-04-29T07:51:39;14.60;1.00
36322;DHT22;23564;48.290;11.460;2023-04-29T07:54:05;14.70;1.00
36322;DHT22;23564;48.290;11.460;2023-04-29T07:56:30;14.70;1.00
36322;DHT22;23564;48.290;11.460;2023-04-29T07:58:56;14.70;1.00
36322;DHT22;23564;48.290;11.460;2023-04-29T08:01:21;14.80;1.00
36322;DHT22;23564;48.290;11.460;2023-04-29T08:03:47;14.80;1.00
36322;DHT22;23564;48.290;11.460;2023-04-29T08:06:12;14.90;1.00
36322;DHT22;23564;48.290;11.460;2023-04-29T08:08:38;14.90;1.00
36322;DHT22;23564;48.290;11.460;2023-04-29T08:11:03;15.00;1.00
36322;DHT22;23564;48.290;11.460;2023-04-29T08:13:29;15.20;1.00
36322;DHT22;23564;48.290;11.460;2023-04-29T08:15:55;15.10;1.00
36322;DHT22;23564;48.290;11.460;2023-04-29T08:18:20;15.00;1.00
36322;DHT22;23564;48.290;11.460;2023-04-29T08:20:47;15.00;1.00
36322;DHT22;23564;48.290;11.460;2023-04-29T08:23:13;15.00;1.00
36322;DHT22;23564;48.290;11.460;2023-04-29T08:25:42;14.90;1.00
36322;DHT22;23564;48.290;11.460;2023-04-29T08:28:08;14.80;1.00
36322;DHT22;23564;48.290;11.460;2023-04-29T08:30:39;14.80;1.00
36322;DHT22;23564;48.290;11.460;2023-04-29T08:33:05;14.90;1.00
36322;DHT22;23564;48.290;11.460;2023-04-29T08:35:31;15.10;1.00
36322;DHT22;23564;48.290;11.460;2023-04-29T08:37:56;15.20;1.00
36322;DHT22;23564;48.290;11.460;2023-04-29T08:40:22;15.30;1.00
36322;DHT22;23564;48.290;11.460;2023-04-29T08:42:48;15.30;99.90
36322;DHT22;23564;48.290;11.460;2023-04-29T08:45:17;15.20;99.90
36322;DHT22;23564;48.290;11.460;2023-04-29T08:47:44;15.10;1.00
36322;DHT22;23564;48.290;11.460;2023-04-29T08:50:10;15.10;1.00
36322;DHT22;23564;48.290;11.460;2023-04-29T08:52:36;15.10;1.00
36322;DHT22;23564;48.290;11.460;2023-04-29T08:55:01;15.20;1.00
36322;DHT22;23564;48.290;11.460;2023-04-29T08:57:29;15.40;99.90
36322;DHT22;23564;48.290;11.460;2023-04-29T08:59:54;15.60;1.00
36322;DHT22;23564;48.290;11.460;2023-04-29T09:02:22;15.60;99.90
36322;DHT22;23564;48.290;11.460;2023-04-29T09:05:03;15.60;1.00
36322;DHT22;23564;48.290;11.460;2023-04-29T09:07:30;15.60;1.00
36322;DHT22;23564;48.290;11.460;2023-04-29T09:09:56;15.50;99.90
36322;DHT22;23564;48.290;11.460;2023-04-29T09:12:23;15.30;1.00
36322;DHT22;23564;48.290;11.460;2023-04-29T09:14:49;15.30;1.00
36322;DHT22;23564;48.290;11.460;2023-04-29T09:17:14;15.50;99.90
36322;DHT22;23564;48.290;11.460;2023-04-29T09:19:41;15.60;99.90
36322;DHT22;23564;48.290;11.460;2023-04-29T09:22:06;15.80;99.90
36322;DHT22;23564;48.290;11.460;2023-04-29T09:24:32;16.00;99.90
36322;DHT22;23564;48.290;11.460;2023-04-29T09:26:59;16.10;13.50
36322;DHT22;23564;48.290;11.460;2023-04-29T09:29:27;15.90;99.90
36322;DHT22;23564;48.290;11.460;2023-04-29T09:31:53;15.80;99.90
36322;DHT22;23564;48.290;11.460;2023-04-29T09:34:33;15.40;99.90
36322;DHT22;23564;48.290;11.460;2023-04-29T09:37:25;15.10;1.00
36322;DHT22;23564;48.290;11.460;2023-04-29T09:39:53;14.80;1.00
36322;DHT22;23564;48.290;11.460;2023-04-29T09:42:18;14.70;1.00
36322;DHT22;23564;48.290;11.460;2023-04-29T09:44:44;14.50;1.00
36322;DHT22;23564;48.290;11.460;2023-04-29T09:47:10;14.50;1.00
36322;DHT22;23564;48.290;11.460;2023-04-29T09:49:39;14.40;1.00
36322;DHT22;23564;48.290;11.460;2023-04-29T09:52:11;14.40;1.00
36322;DHT22;23564;48.290;11.460;2023-04-29T09:54:38;14.50;1.00
36322;DHT22;23564;48.290;11.460;2023-04-29T09:57:06;14.50;1.00
36322;DHT22;23564;48.290;11.460;2023-04-29T09:59:37;14.60;1.00
36322;DHT22;23564;48.290;11.460;2023-04-29T10:02:12;14.80;1.00
36322;DHT22;23564;48.290;11.460;2023-04-29T10:04:40;15.00;1.00
36322;DHT22;23564;48.290;11.460;2023-04-29T10:07:07;15.10;1.00
36322;DHT22;23564;48.290;11.460;2023-04-29T10:09:36;15.30;1.00
36322;DHT22;23564;48.290;11.460;2023-04-29T10:12:06;15.40;99.90
36322;DHT22;23564;48.290;11.460;2023-04-29T10:14:42;15.60;99.90
36322;DHT22;23564;48.290;11.460;2023-04-29T10:17:19;15.70;99.90
36322;DHT22;23564;48.290;11.460;2023-04-29T10:20:05;15.90;86.80
36322;DHT22;23564;48.290;11.460;2023-04-29T10:22:44;16.10;99.90
36322;DHT22;23564;48.290;11.460;2023-04-29T10:25:11;16.20;99.90
36322;DHT22;23564;48.290;11.460;2023-04-29T10:27:40;16.20;99.90
36322;DHT22;23564;48.290;11.460;2023-04-29T10:30:11;16.00;49.20
36322;DHT22;23564;48.290;11.460;2023-04-29T10:32:42;15.80;99.90
36322;DHT22;23564;48.290;11.460;2023-04-29T10:35:13;15.70;99.90
36322;DHT22;23564;48.290;11.460;2023-04-29T10:37:40;15.80;83.10
36322;DHT22;23564;48.290;11.460;2023-04-29T10:42:46;15.80;77.90
36322;DHT22;23564;48.290;11.460;2023-04-29T10:45:22;15.90;99.90
36322;DHT22;23564;48.290;11.460;2023-04-29T10:53:06;15.90;99.90
36322;DHT22;23564;48.290;11.460;2023-04-29T10:55:36;16.00;1.00
36322;DHT22;23564;48.290;11.460;2023-04-29T10:58:03;16.10;99.90
36322;DHT22;23564;48.290;11.460;2023-04-29T11:00:33;16.20;99.90
36322;DHT22;23564;48.290;11.460;2023-04-29T11:03:04;16.20;12.70
36322;DHT22;23564;48.290;11.460;2023-04-29T11:05:35;16.10;99.90
36322;DHT22;23564;48.290;11.460;2023-04-29T11:08:11;16.00;99.90
36322;DHT22;23564;48.290;11.460;2023-04-29T11:10:40;16.00;1.00
36322;DHT22;23564;48.290;11.460;2023-04-29T11:13:27;16.00;99.90
36322;DHT22;23564;48.290;11.460;2023-04-29T11:16:11;16.10;99.90
36322;DHT22;23564;48.290;11.460;2023-04-29T11:19:08;16.10;99.90
36322;DHT22;23564;48.290;11.460;2023-04-29T11:21:36;16.20;99.90
36322;DHT22;23564;48.290;11.460;2023-04-29T11:24:02;16.30;99.90
36322;DHT22;23564;48.290;11.460;2023-04-29T11:26:31;16.30;99.90
36322;DHT22;23564;48.290;11.460;2023-04-29T11:28:56;16.20;99.90
36322;DHT22;23564;48.290;11.460;2023-04-29T11:31:29;16.20;99.90
36322;DHT22;23564;48.290;11.460;2023-04-29T11:33:55;16.20;1.00
36322;DHT22;23564;48.290;11.460;2023-04-29T11:36:20;16.10;98.20
36322;DHT22;23564;48.290;11.460;2023-04-29T11:38:46;16.10;1.00
36322;DHT22;23564;48.290;11.460;2023-04-29T11:41:12;16.30;60.40
36322;DHT22;23564;48.290;11.460;2023-04-29T11:43:40;16.50;99.90
36322;DHT22;23564;48.290;11.460;2023-04-29T11:46:14;16.60;99.90
36322;DHT22;23564;48.290;11.460;2023-04-29T11:48:47;16.70;1.00
36322;DHT22;23564;48.290;11.460;2023-04-29T11:51:14;16.60;1.00
36322;DHT22;23564;48.290;11.460;2023-04-29T11:53:40;16.60;1.00
36322;DHT22;23564;48.290;11.460;2023-04-29T11:56:08;16.50;1.00
36322;DHT22;23564;48.290;11.460;2023-04-29T11:58:33;16.50;1.00
36322;DHT22;23564;48.290;11.460;2023-04-29T12:00:59;16.60;5.70
36322;DHT22;23564;48.290;11.460;2023-04-29T12:03:25;16.70;17.30
36322;DHT22;23564;48.290;11.460;2023-04-29T12:05:55;16.70;1.00
36322;DHT22;23564;48.290;11.460;2023-04-29T12:08:21;16.60;99.90
36322;DHT22;23564;48.290;11.460;2023-04-29T12:10:48;16.60;1.00
36322;DHT22;23564;48.290;11.460;2023-04-29T12:13:17;16.60;1.00
36322;DHT22;23564;48.290;11.460;2023-04-29T12:15:47;16.60;1.00
36322;DHT22;23564;48.290;11.460;2023-04-29T12:18:16;16.60;1.00
36322;DHT22;23564;48.290;11.460;2023-04-29T12:20:42;16.50;1.00
36322;DHT22;23564;48.290;11.460;2023-04-29T12:23:15;16.50;99.90
36322;DHT22;23564;48.290;11.460;2023-04-29T12:25:48;16.40;99.90
36322;DHT22;23564;48.290;11.460;2023-04-29T12:28:15;16.40;99.90
36322;DHT22;23564;48.290;11.460;2023-04-29T12:30:43;16.40;99.90
36322;DHT22;23564;48.290;11.460;2023-04-29T12:33:09;16.40;99.90
36322;DHT22;23564;48.290;11.460;2023-04-29T12:35:36;16.40;99.90
36322;DHT22;23564;48.290;11.460;2023-04-29T12:38:01;16.40;99.90
36322;DHT22;23564;48.290;11.460;2023-04-29T12:40:27;16.40;99.90
36322;DHT22;23564;48.290;11.460;2023-04-29T12:42:53;16.40;99.90
36322;DHT22;23564;48.290;11.460;2023-04-29T12:45:30;16.50;99.90
36322;DHT22;23564;48.290;11.460;2023-04-29T12:47:57;16.60;99.90
36322;DHT22;23564;48.290;11.460;2023-04-29T12:50:34;16.70;99.90
36322;DHT22;23564;48.290;11.460;2023-04-29T12:53:02;16.70;99.90
36322;DHT22;23564;48.290;11.460;2023-04-29T12:55:30;16.70;99.90
36322;DHT22;23564;48.290;11.460;2023-04-29T12:57:55;16.70;99.90
36322;DHT22;23564;48.290;11.460;2023-04-29T13:00:21;16.70;99.90
36322;DHT22;23564;48.290;11.460;2023-04-29T13:02:47;16.80;99.90
36322;DHT22;23564;48.290;11.460;2023-04-29T13:05:13;16.80;99.90
36322;DHT22;23564;48.290;11.460;2023-04-29T13:07:38;16.80;1.00
36322;DHT22;23564;48.290;11.460;2023-04-29T13:10:05;16.80;43.10
36322;DHT22;23564;48.290;11.460;2023-04-29T13:12:32;16.90;2.90
36322;DHT22;23564;48.290;11.460;2023-04-29T13:14:57;17.00;17.60
36322;DHT22;23564;48.290;11.460;2023-04-29T13:17:23;17.00;99.90
36322;DHT22;23564;48.290;11.460;2023-04-29T13:19:48;17.10;68.00
36322;DHT22;23564;48.290;11.460;2023-04-29T13:22:15;17.00;54.70
36322;DHT22;23564;48.290;11.460;2023-04-29T13:24:40;16.90;99.90
36322;DHT22;23564;48.290;11.460;2023-04-29T13:27:06;16.80;99.90
36322;DHT22;23564;48.290;11.460;2023-04-29T13:29:32;16.60;95.90
36322;DHT22;23564;48.290;11.460;2023-04-29T13:31:57;16.50;99.90
36322;DHT22;23564;48.290;11.460;2023-04-29T13:34:23;16.50;99.90
36322;DHT22;23564;48.290;11.460;2023-04-29T13:36:48;16.50;99.90
36322;DHT22;23564;48.290;11.460;2023-04-29T13:39:14;16.40;99.90
36322;DHT22;23564;48.290;11.460;2023-04-29T13:41:39;16.30;99.90
36322;DHT22;23564;48.290;11.460;2023-04-29T13:44:05;16.20;99.90
36322;DHT22;23564;48.290;11.460;2023-04-29T13:46:31;16.20;99.90
36322;DHT22;23564;48.290;11.460;2023-04-29T13:48:57;16.30;99.90
36322;DHT22;23564;48.290;11.460;2023-04-29T13:51:23;16.40;99.90
36322;DHT22;23564;48.290;11.460;2023-04-29T13:53:48;16.30;90.10
36322;DHT22;23564;48.290;11.460;2023-04-29T13:56:14;16.30;94.40
36322;DHT22;23564;48.290;11.460;2023-04-29T13:58:40;16.30;34.50
36322;DHT22;23564;48.290;11.460;2023-04-29T14:01:06;16.30;99.90
36322;DHT22;23564;48.290;11.460;2023-04-29T14:03:32;16.30;34.70
36322;DHT22;23564;48.290;11.460;2023-04-29T14:05:58;16.30;92.10
36322;DHT22;23564;48.290;11.460;2023-04-29T14:08:23;16.20;88.90
36322;DHT22;23564;48.290;11.460;2023-04-29T14:10:49;16.20;99.90
36322;DHT22;23564;48.290;11.460;2023-04-29T14:13:14;16.20;91.80
36322;DHT22;23564;48.290;11.460;2023-04-29T14:15:42;16.30;99.90
36322;DHT22;23564;48.290;11.460;2023-04-29T14:18:07;16.40;99.90
36322;DHT22;23564;48.290;11.460;2023-04-29T14:20:34;16.30;33.70
36322;DHT22;23564;48.290;11.460;2023-04-29T14:22:59;16.30;96.20
36322;DHT22;23564;48.290;11.460;2023-04-29T14:25:25;16.20;99.90
36322;DHT22;23564;48.290;11.460;2023-04-29T14:27:50;16.30;1.00
36322;DHT22;23564;48.290;11.460;2023-04-29T14:30:16;16.20;1.00
36322;DHT22;23564;48.290;11.460;2023-04-29T14:32:42;16.30;1.00
36322;DHT22;23564;48.290;11.460;2023-04-29T14:35:08;16.50;1.00
36322;DHT22;23564;48.290;11.460;2023-04-29T14:37:33;16.50;1.00
36322;DHT22;23564;48.290;11.460;2023-04-29T14:39:59;16.60;1.00
36322;DHT22;23564;48.290;11.460;2023-04-29T14:42:25;16.60;1.00
36322;DHT22;23564;48.290;11.460;2023-04-29T14:44:50;16.50;1.00
36322;DHT22;23564;48.290;11.460;2023-04-29T14:47:16;16.50;99.90
36322;DHT22;23564;48.290;11.460;2023-04-29T14:49:42;16.50;99.90
36322;DHT22;23564;48.290;11.460;2023-04-29T14:52:08;16.50;99.90
36322;DHT22;23564;48.290;11.460;2023-04-29T14:54:34;16.50;99.90
36322;DHT22;23564;48.290;11.460;2023-04-29T14:57:00;16.50;99.90
36322;DHT22;23564;48.290;11.460;2023-04-29T14:59:26;16.50;99.90
36322;DHT22;23564;48.290;11.460;2023-04-29T15:01:54;16.50;99.90
36322;DHT22;23564;48.290;11.460;2023-04-29T15:04:20;16.50;99.90
36322;DHT22;23564;48.290;11.460;2023-04-29T15:06:47;16.60;99.90
36322;DHT22;23564;48.290;11.460;2023-04-29T15:09:13;16.60;99.90
36322;DHT22;23564;48.290;11.460;2023-04-29T15:11:38;16.70;99.90
36322;DHT22;23564;48.290;11.460;2023-04-29T15:14:04;16.70;99.90
36322;DHT22;23564;48.290;11.460;2023-04-29T15:16:30;16.80;99.90
36322;DHT22;23564;48.290;11.460;2023-04-29T15:18:56;16.90;99.90
36322;DHT22;23564;48.290;11.460;2023-04-29T15:21:22;16.90;99.90
36322;DHT22;23564;48.290;11.460;2023-04-29T15:23:47;16.80;99.90
36322;DHT22;23564;48.290;11.460;2023-04-29T15:26:13;16.70;99.90
36322;DHT22;23564;48.290;11.460;2023-04-29T15:28:39;16.80;99.90
36322;DHT22;23564;48.290;11.460;2023-04-29T15:31:04;16.80;99.90
36322;DHT22;23564;48.290;11.460;2023-04-29T15:33:30;16.90;99.90
36322;DHT22;23564;48.290;11.460;2023-04-29T15:35:57;16.90;99.90
36322;DHT22;23564;48.290;11.460;2023-04-29T15:38:23;17.00;99.90
36322;DHT22;23564;48.290;11.460;2023-04-29T15:40:48;17.00;99.90
36322;DHT22;23564;48.290;11.460;2023-04-29T15:43:14;17.10;99.90
36322;DHT22;23564;48.290;11.460;2023-04-29T15:45:40;17.10;99.90